Time;durP1;ratioP1;P1;durP2;ratioP2;P2;SDS_P1;SDS_P2;PMS_P1;PMS_P2;Temp;Humidity;BMP_temperature;BMP_pressure;BME280_temperature;BME280_humidity;BME280_pressure;Samples;Min_cycle;Max_cycle;Signal;HPM_P1;HPM_P2
2022/07/15 00:03:36;;;;;;;13.45;3.45;;;;;;;14.70;79.08;102072.72;4718339;30;20052;-77
2022/07/15 00:10:13;;;;;;;13.52;3.70;;;;;;;14.89;77.63;102070.03;4735571;30;20182;-77
2022/07/15 00:16:13;;;;;;;11.55;3.17;;;;;;;14.93;76.49;102071.28;4631592;30;20434;-77
2022/07/15 00:19:43;;;;;;;;;;;;;;;;;;;;;
2022/07/15 00:26:38;;;;;;;8.90;3.15;;;;;;;14.87;77.08;102083.88;4638466;30;20114;-77
2022/07/15 00:29:57;;;;;;;;;;;;;;;;;;;;;
2022/07/15 00:37:05;;;;;;;11.20;3.15;;;;;;;14.83;76.85;102073.66;4626745;31;20066;-77
2022/07/15 00:43:35;;;;;;;10.93;3.08;;;;;;;14.63;78.41;102066.50;4685104;30;20490;-77
2022/07/15 00:46:09;;;;;;;10.43;3.08;;;;;;;14.64;78.48;102079.03;4695898;30;20072;-77
2022/07/15 00:52:00;;;;;;;10.07;2.88;;;;;;;14.57;78.99;102072.81;4697585;30;20044;-77
2022/07/15 00:54:36;;;;;;;8.13;2.65;;;;;;;14.50;79.59;102072.84;4712719;30;20131;-77
2022/07/15 01:01:12;;;;;;;;;;;;;;;;;;;;;
2022/07/15 01:04:30;;;;;;;9.18;2.90;;;;;;;14.62;78.19;102077.63;4714277;30;20033;-77
2022/07/15 01:07:06;;;;;;;6.75;2.47;;;;;;;14.43;79.20;102065.78;4648460;30;20057;-77
2022/07/15 01:09:57;;;;;;;6.28;2.42;;;;;;;14.44;79.13;102067.47;4647056;30;20393;-77
2022/07/15 01:12:40;;;;;;;6.13;2.17;;;;;;;14.33;80.21;102056.22;4663220;30;20038;-77
2022/07/15 01:19:24;;;;;;;;;;;;;;;;;;;;;
2022/07/15 01:33:16;;;;;;;;;;;;;;;;;;;;;
2022/07/15 01:36:37;;;;;;;;;;;;;;;;;;;;;
2022/07/15 01:43:23;;;;;;;;;;;;;;;;;;;;;
2022/07/15 01:46:41;;;;;;;10.07;3.33;;;;;;;13.77;86.25;102085.00;4561211;31;20037;-77
2022/07/15 01:49:47;;;;;;;12.15;3.22;;;;;;;13.65;87.50;102075.88;4562254;31;20867;-77
2022/07/15 01:52:30;;;;;;;13.05;3.35;;;;;;;13.81;86.29;102085.41;4568448;31;20060;-76
2022/07/15 01:55:41;;;;;;;10.93;3.10;;;;;;;13.78;87.01;102074.97;4562390;31;20044;-78
2022/07/15 01:58:38;;;;;;;9.80;3.10;;;;;;;13.87;85.05;102084.53;4597136;31;20056;-77
2022/07/15 02:01:43;;;;;;;10.05;3.20;;;;;;;13.78;86.54;102081.25;4626486;31;20517;-77
2022/07/15 02:04:50;;;;;;;;;;;;;;;;;;;;;
2022/07/15 02:15:41;;;;;;;;;;;;;;;;;;;;;
2022/07/15 02:25:11;;;;;;;14.38;3.30;;;;;;;13.84;83.85;102084.97;4486702;31;20034;-75
2022/07/15 02:27:41;;;;;;;10.25;3.20;;;;;;;13.71;86.09;102077.72;4513367;31;20054;-79
2022/07/15 02:30:19;;;;;;;11.35;3.55;;;;;;;13.66;86.64;102080.22;4513947;31;20388;-73
2022/07/15 02:32:47;;;;;;;10.65;3.28;;;;;;;13.65;86.54;102082.13;4616038;30;20136;-72
2022/07/15 02:35:14;;;;;;;12.10;3.53;;;;;;;13.72;86.41;102081.25;4712110;30;20370;-73
2022/07/15 02:37:47;;;;;;;7.85;3.17;;;;;;;13.69;85.67;102078.97;4715007;30;20119;-75
2022/07/15 02:40:16;;;;;;;8.73;3.20;;;;;;;13.70;85.44;102081.47;4714165;30;20094;-73
2022/07/15 02:42:52;;;;;;;9.63;3.67;;;;;;;13.61;86.38;102071.91;4713830;30;20060;-74
2022/07/15 02:45:22;;;;;;;9.10;3.22;;;;;;;13.68;86.15;102077.31;4714209;30;20651;-73
2022/07/15 02:47:51;;;;;;;11.25;3.42;;;;;;;13.65;86.19;102082.13;4714254;30;20025;-73
2022/07/15 02:50:21;;;;;;;11.07;3.20;;;;;;;13.52;85.73;102079.47;4711908;30;20042;-75
2022/07/15 02:52:52;;;;;;;11.73;3.22;;;;;;;13.57;87.07;102079.66;4714281;30;20118;-73
2022/07/15 02:55:22;;;;;;;8.45;3.22;;;;;;;13.58;86.43;102081.31;4714766;30;20435;-75
2022/07/15 02:57:50;;;;;;;8.38;2.85;;;;;;;13.67;85.92;102089.25;4717698;30;20390;-73
2022/07/15 03:00:20;;;;;;;9.20;3.00;;;;;;;13.61;87.07;102085.50;4703499;30;20040;-73
2022/07/15 03:02:49;;;;;;;11.20;3.08;;;;;;;13.50;87.79;102089.72;4716028;30;20098;-75
2022/07/15 03:05:17;;;;;;;9.20;3.25;;;;;;;13.51;87.16;102096.81;4717805;30;20524;-73
2022/07/15 03:07:44;;;;;;;10.85;3.55;;;;;;;13.48;88.25;102110.84;4716877;30;20041;-75
2022/07/15 03:10:13;;;;;;;9.13;3.13;;;;;;;13.39;89.01;102103.97;4703254;30;20071;-75
2022/07/15 03:12:41;;;;;;;11.45;3.95;;;;;;;13.37;89.66;102111.50;4687055;30;20041;-75
2022/07/15 03:15:14;;;;;;;9.02;3.58;;;;;;;13.30;90.89;102106.06;4692580;30;20034;-72
2022/07/15 03:17:41;;;;;;;8.80;4.05;;;;;;;13.23;91.20;102106.06;4717790;30;20040;-76
2022/07/15 03:20:10;;;;;;;10.85;3.30;;;;;;;13.32;90.34;102120.28;4715593;30;20049;-73
2022/07/15 03:22:38;;;;;;;12.73;3.78;;;;;;;13.29;90.91;102116.09;4702978;30;20060;-73
2022/07/15 03:25:07;;;;;;;8.00;3.22;;;;;;;13.29;90.90;102120.69;4693711;30;20120;-75
2022/07/15 03:27:33;;;;;;;12.25;3.95;;;;;;;13.30;90.79;102108.78;4715416;30;20036;-75
2022/07/15 03:30:00;;;;;;;11.35;3.70;;;;;;;13.29;90.67;102109.81;4718816;30;20029;-75
2022/07/15 03:32:29;;;;;;;10.32;3.90;;;;;;;13.35;90.92;102124.50;4702454;30;20037;-74
2022/07/15 03:34:59;;;;;;;10.80;3.22;;;;;;;13.40;90.84;102128.22;4717490;30;20029;-74
2022/07/15 03:37:26;;;;;;;7.25;3.42;;;;;;;13.37;91.23;102130.53;4715549;30;20029;-74
2022/07/15 03:39:52;;;;;;;11.38;3.70;;;;;;;13.32;90.84;102127.59;4717527;30;20048;-74
2022/07/15 03:42:19;;;;;;;10.00;3.42;;;;;;;13.29;91.43;102128.84;4717329;30;20060;-74
2022/07/15 03:44:44;;;;;;;9.90;3.40;;;;;;;13.25;91.81;102123.00;4717417;30;20024;-74
2022/07/15 03:47:10;;;;;;;12.77;3.83;;;;;;;13.22;92.32;102126.13;4716007;30;20041;-75
2022/07/15 03:49:38;;;;;;;12.48;3.70;;;;;;;13.31;92.91;102140.34;4687416;30;20065;-75
2022/07/15 03:52:06;;;;;;;8.77;3.55;;;;;;;13.35;92.93;102138.91;4701086;30;20029;-75
2022/07/15 03:54:32;;;;;;;11.43;3.60;;;;;;;13.40;92.12;102146.44;4707716;30;20032;-73
2022/07/15 03:57:00;;;;;;;9.18;3.92;;;;;;;13.41;91.44;102145.38;4718433;30;20112;-75
2022/07/15 03:59:31;;;;;;;12.43;3.88;;;;;;;13.45;91.95;102135.75;4715041;30;20057;-73
2022/07/15 04:02:00;;;;;;;8.68;3.67;;;;;;;13.45;91.89;102144.75;4697360;30;20045;-74
2022/07/15 04:04:28;;;;;;;11.13;3.33;;;;;;;13.47;91.89;102139.94;4700719;30;20076;-74
2022/07/15 04:06:56;;;;;;;6.90;3.47;;;;;;;13.40;94.41;102139.09;4716654;30;20064;-75
2022/07/15 04:09:24;;;;;;;9.25;3.80;;;;;;;13.47;93.12;102139.94;4701382;30;20029;-75
2022/07/15 04:11:51;;;;;;;16.08;4.03;;;;;;;13.47;92.73;102142.66;4717489;30;20086;-73
2022/07/15 04:14:17;;;;;;;12.77;3.80;;;;;;;13.46;93.14;102145.56;4717371;30;20060;-73
2022/07/15 04:16:43;;;;;;;12.38;3.63;;;;;;;13.46;92.99;102142.84;4717983;30;20422;-73
2022/07/15 04:19:09;;;;;;;13.32;4.07;;;;;;;13.51;92.92;102150.38;4701423;30;20029;-73
2022/07/15 04:21:36;;;;;;;11.43;4.50;;;;;;;13.55;92.63;102147.00;4717911;30;20355;-74
2022/07/15 04:24:02;;;;;;;13.90;4.30;;;;;;;13.62;92.36;102149.75;4716809;30;20057;-76
2022/07/15 04:26:31;;;;;;;13.27;4.07;;;;;;;13.65;93.51;102144.69;4702174;30;20071;-73
2022/07/15 04:28:59;;;;;;;14.43;4.15;;;;;;;13.58;94.92;102146.59;4711376;30;20025;-75
2022/07/15 04:31:27;;;;;;;10.63;3.65;;;;;;;13.55;94.89;102151.63;4712159;30;20033;-75
2022/07/15 04:33:53;;;;;;;16.77;4.43;;;;;;;13.41;96.17;102142.69;4717970;30;20083;-75
2022/07/15 04:36:18;;;;;;;14.23;3.72;;;;;;;13.34;96.95;102144.56;4701155;30;20025;-73
2022/07/15 04:38:51;;;;;;;9.32;3.80;;;;;;;13.26;98.06;102149.13;4702197;30;20040;-75
2022/07/15 04:41:23;;;;;;;12.32;4.30;;;;;;;13.36;98.78;102156.06;4716887;30;20079;-74
2022/07/15 04:43:51;;;;;;;12.65;4.40;;;;;;;13.37;98.51;102160.44;4717635;30;20044;-75
2022/07/15 04:46:17;;;;;;;12.15;4.82;;;;;;;13.44;98.84;102161.28;4702022;30;20457;-73
2022/07/15 04:51:34;;;;;;;12.30;4.35;;;;;;;13.62;95.72;102169.59;4716759;30;20047;-76
2022/07/15 04:54:05;;;;;;;19.45;4.90;;;;;;;13.59;97.05;102159.16;4701489;30;20047;-75
2022/07/15 04:56:31;;;;;;;21.58;5.15;;;;;;;13.59;96.94;102156.44;4716974;30;20120;-75
2022/07/15 04:58:58;;;;;;;10.13;4.90;;;;;;;13.71;94.79;102158.47;4716196;30;20049;-73
2022/07/15 05:01:26;;;;;;;12.02;4.60;;;;;;;13.73;95.14;102161.84;4713441;30;20045;-74
2022/07/15 05:03:54;;;;;;;18.65;4.78;;;;;;;13.67;94.68;102155.34;4717190;30;20461;-75
2022/07/15 05:06:19;;;;;;;7.45;4.00;;;;;;;13.72;94.37;102160.97;4716622;30;20084;-73
2022/07/15 05:08:58;;;;;;;13.32;4.38;;;;;;;13.72;95.23;102160.16;4716625;30;20085;-75
2022/07/15 05:11:27;;;;;;;11.75;4.30;;;;;;;13.68;95.04;102162.47;4716691;30;20047;-75
2022/07/15 05:13:59;;;;;;;11.68;4.20;;;;;;;13.79;94.33;102163.69;4701293;30;20474;-72
2022/07/15 05:16:24;;;;;;;26.02;4.28;;;;;;;13.81;93.72;102161.59;4700113;30;20044;-73
2022/07/15 05:18:50;;;;;;;14.45;4.53;;;;;;;13.84;93.34;102169.31;4715943;30;20040;-73
2022/07/15 05:21:18;;;;;;;14.45;4.38;;;;;;;13.86;92.37;102163.66;4700512;30;20054;-74
2022/07/15 05:23:50;;;;;;;22.17;4.53;;;;;;;13.89;93.31;102164.09;4714851;30;20033;-73
2022/07/15 05:26:15;;;;;;;17.25;5.00;;;;;;;13.90;93.53;102165.72;4716679;30;20040;-75
2022/07/15 05:28:41;;;;;;;13.95;4.05;;;;;;;13.93;93.09;102165.31;4713690;30;20029;-73
2022/07/15 05:31:12;;;;;;;18.40;4.53;;;;;;;13.90;93.23;102164.91;4715524;30;20075;-73
2022/07/15 05:33:37;;;;;;;14.05;4.32;;;;;;;13.92;92.29;102171.81;4713879;30;20238;-74
2022/07/15 05:36:06;;;;;;;13.27;4.18;;;;;;;13.98;92.96;102168.22;4716581;30;20064;-75
2022/07/15 05:38:44;;;;;;;19.48;5.13;;;;;;;14.04;93.03;102160.25;4700363;30;20055;-76
2022/07/15 05:41:24;;;;;;;13.20;3.90;;;;;;;14.06;92.47;102163.59;4715975;30;20041;-73
2022/07/15 05:44:13;;;;;;;16.00;4.15;;;;;;;14.04;92.48;102162.97;4700978;30;20120;-74
2022/07/15 05:46:42;;;;;;;11.98;3.80;;;;;;;14.02;94.97;102162.34;4697558;30;20132;-74
2022/07/15 05:49:16;;;;;;;10.18;3.63;;;;;;;14.02;93.73;102165.09;4697892;30;20042;-75
2022/07/15 05:51:44;;;;;;;14.45;4.53;;;;;;;14.04;95.50;102162.97;4710533;30;20041;-75
2022/07/15 05:54:15;;;;;;;10.30;3.97;;;;;;;14.15;94.10;102156.84;4714599;30;20390;-75
2022/07/15 05:56:42;;;;;;;12.32;3.50;;;;;;;14.25;90.98;102156.38;4716797;30;20058;-74
2022/07/15 05:59:07;;;;;;;15.10;4.20;;;;;;;14.30;91.35;102153.84;4712909;30;20128;-75
2022/07/15 06:01:33;;;;;;;18.63;4.07;;;;;;;14.39;89.69;102160.72;4695373;30;20598;-74
2022/07/15 06:03:59;;;;;;;15.90;4.18;;;;;;;14.50;90.56;102168.16;4698241;30;20037;-74
2022/07/15 06:06:25;;;;;;;10.35;3.90;;;;;;;14.58;90.07;102161.63;4698297;30;20033;-74
2022/07/15 06:08:52;;;;;;;12.50;3.60;;;;;;;14.65;89.07;102162.44;4701070;30;20433;-74
2022/07/15 06:11:18;;;;;;;17.55;3.53;;;;;;;14.76;87.35;102160.91;4699222;30;20437;-74
2022/07/15 06:13:44;;;;;;;13.30;3.45;;;;;;;14.79;86.92;102163.19;4697052;30;20069;-74
2022/07/15 06:16:10;;;;;;;11.27;3.08;;;;;;;14.88;82.70;102164.56;4702150;30;20063;-74
2022/07/15 06:18:35;;;;;;;16.13;3.30;;;;;;;14.88;84.69;102167.31;4716548;30;20053;-74
2022/07/15 06:21:01;;;;;;;13.05;2.95;;;;;;;14.90;83.41;102164.38;4699983;30;20029;-74
2022/07/15 06:23:26;;;;;;;19.63;3.00;;;;;;;14.94;84.34;102165.59;4715602;30;20104;-75
2022/07/15 06:25:52;;;;;;;18.40;3.50;;;;;;;15.00;84.72;102161.97;4716583;30;20468;-74
2022/07/15 06:28:17;;;;;;;9.18;3.03;;;;;;;15.04;80.71;102165.94;4715760;30;20041;-75
2022/07/15 06:30:42;;;;;;;10.07;2.40;;;;;;;15.07;81.05;102159.19;4717077;30;20073;-74
2022/07/15 06:33:08;;;;;;;14.45;2.65;;;;;;;15.14;80.04;102164.59;4718447;30;20057;-74
2022/07/15 06:35:34;;;;;;;13.27;3.05;;;;;;;15.22;79.93;102153.41;4717364;30;20048;-74
2022/07/15 06:37:59;;;;;;;9.20;2.30;;;;;;;15.26;79.00;102162.78;4719533;30;20378;-75
2022/07/15 06:40:24;;;;;;;8.27;2.22;;;;;;;15.29;78.58;102156.88;4717790;30;20392;-74
2022/07/15 06:42:50;;;;;;;14.80;2.80;;;;;;;15.35;78.26;102157.88;4718610;30;20454;-74
2022/07/15 06:45:18;;;;;;;10.98;2.33;;;;;;;15.34;76.17;102153.47;4703850;30;20037;-74
2022/07/15 06:47:46;;;;;;;11.93;2.40;;;;;;;15.34;76.93;102158.94;4703286;30;20052;-74
2022/07/15 06:50:12;;;;;;;9.50;2.03;;;;;;;15.46;76.51;102167.22;4703843;30;20439;-73
2022/07/15 06:52:46;;;;;;;10.95;2.28;;;;;;;15.50;75.46;102158.34;4717162;30;20024;-76
2022/07/15 06:56:04;;;;;;;13.05;1.98;;;;;;;15.69;75.75;102172.03;4727167;30;20083;-71
2022/07/15 06:58:30;;;;;;;8.25;1.70;;;;;;;15.76;73.78;102156.38;4721498;30;20040;-72
2022/07/15 07:08:42;;;;;;;8.65;1.50;;;;;;;16.18;70.87;102169.34;4718229;30;20056;-73
2022/07/15 07:11:25;;;;;;;4.22;1.33;;;;;;;16.23;67.89;102164.03;4716593;30;20382;-73
2022/07/15 07:13:52;;;;;;;7.97;2.10;;;;;;;16.38;66.72;102161.72;4715086;30;20418;-72
2022/07/15 07:16:18;;;;;;;5.75;1.80;;;;;;;16.38;64.00;102167.19;4701904;30;20029;-70
2022/07/15 07:18:45;;;;;;;8.70;1.70;;;;;;;16.46;65.71;102180.53;4718172;30;20041;-70
2022/07/15 07:21:11;;;;;;;4.35;1.20;;;;;;;16.50;65.53;102166.38;4702488;30;20037;-74
2022/07/15 07:23:39;;;;;;;5.00;1.27;;;;;;;16.58;64.42;102182.47;4718645;30;20112;-74
2022/07/15 07:26:05;;;;;;;10.52;1.85;;;;;;;16.58;64.39;102168.81;4703387;30;20492;-74
2022/07/15 07:28:32;;;;;;;5.30;0.98;;;;;;;16.66;64.33;102173.94;4717927;30;20041;-75
2022/07/15 07:30:57;;;;;;;13.38;1.88;;;;;;;16.70;64.03;102177.88;4717599;30;20037;-75
2022/07/15 07:33:23;;;;;;;5.45;1.70;;;;;;;16.75;63.95;102178.00;4717969;30;20112;-76
2022/07/15 07:35:48;;;;;;;5.40;1.35;;;;;;;16.75;62.26;102180.72;4718207;30;20064;-75
2022/07/15 07:38:13;;;;;;;4.32;1.00;;;;;;;16.76;61.80;102176.94;4701971;30;20445;-76
2022/07/15 07:40:38;;;;;;;4.18;1.33;;;;;;;16.76;62.24;102187.03;4703179;30;20509;-75
2022/07/15 07:43:04;;;;;;;8.32;1.52;;;;;;;16.77;62.21;102189.53;4701370;30;20037;-76
2022/07/15 07:45:32;;;;;;;6.00;1.27;;;;;;;16.80;62.41;102194.53;4716992;30;20041;-74
2022/07/15 07:47:57;;;;;;;6.28;1.17;;;;;;;16.75;60.93;102194.38;4703189;30;20115;-75
2022/07/15 07:50:23;;;;;;;4.88;1.23;;;;;;;16.79;59.86;102189.31;4717559;30;20542;-74
2022/07/15 07:52:48;;;;;;;2.95;1.25;;;;;;;16.88;60.38;102190.66;4703083;30;20091;-75
2022/07/15 07:55:14;;;;;;;6.07;1.23;;;;;;;16.92;59.99;102185.53;4717220;30;20072;-73
2022/07/15 07:57:51;;;;;;;4.70;1.38;;;;;;;17.03;61.23;102176.53;4718724;30;20434;-73
2022/07/15 08:00:18;;;;;;;7.93;1.38;;;;;;;17.06;61.15;102181.53;4698539;30;20410;-69
2022/07/15 08:02:44;;;;;;;6.82;1.38;;;;;;;17.02;59.88;102190.44;4706275;30;20052;-71
2022/07/15 08:05:10;;;;;;;4.13;1.15;;;;;;;16.98;60.50;102190.06;4718525;30;20456;-71
2022/07/15 08:07:36;;;;;;;6.75;1.08;;;;;;;16.99;58.77;102181.63;4717760;30;20116;-72
2022/07/15 08:10:02;;;;;;;6.45;1.17;;;;;;;17.00;57.48;102185.22;4718552;30;20524;-71
2022/07/15 08:12:28;;;;;;;7.65;1.30;;;;;;;17.02;58.07;102188.53;4717032;30;20047;-72
2022/07/15 08:14:54;;;;;;;4.63;0.90;;;;;;;17.05;56.31;102189.97;4717637;30;20052;-71
2022/07/15 08:17:20;;;;;;;5.55;1.25;;;;;;;16.97;58.64;102186.50;4716470;30;20044;-71
2022/07/15 08:19:46;;;;;;;3.63;0.90;;;;;;;17.07;60.37;102188.66;4718317;30;20094;-72
2022/07/15 08:22:11;;;;;;;5.65;1.30;;;;;;;17.24;59.37;102196.16;4701916;30;20040;-72
2022/07/15 08:24:36;;;;;;;4.80;1.25;;;;;;;17.22;58.71;102187.38;4715903;30;20458;-74
2022/07/15 08:27:02;;;;;;;7.55;1.48;;;;;;;17.25;57.60;102193.19;4689974;30;20467;-75
2022/07/15 08:29:27;;;;;;;4.70;0.98;;;;;;;17.41;56.13;102199.88;4711386;30;20124;-75
2022/07/15 08:32:04;;;;;;;6.18;0.95;;;;;;;17.46;56.37;102199.97;4696699;30;20124;-77
2022/07/15 08:34:41;;;;;;;3.55;0.95;;;;;;;17.40;55.52;102200.94;4700278;30;20102;-77
2022/07/15 08:37:06;;;;;;;5.60;1.08;;;;;;;17.47;57.02;102195.34;4692607;30;20449;-73
2022/07/15 08:39:32;;;;;;;4.85;1.25;;;;;;;17.52;56.32;102185.34;4717864;30;20124;-71
2022/07/15 08:41:57;;;;;;;5.68;0.88;;;;;;;17.58;56.45;102185.47;4703374;30;20511;-71
2022/07/15 08:44:22;;;;;;;6.95;1.25;;;;;;;17.69;56.63;102184.59;4707635;30;20033;-70
2022/07/15 08:46:48;;;;;;;2.97;0.82;;;;;;;17.61;55.39;102183.06;4717721;30;20562;-71
2022/07/15 08:49:15;;;;;;;6.30;1.20;;;;;;;17.69;55.79;102176.38;4717617;30;20033;-72
2022/07/15 08:51:43;;;;;;;3.75;0.95;;;;;;;17.81;54.81;102177.19;4718031;30;20087;-71
2022/07/15 08:54:09;;;;;;;6.05;1.40;;;;;;;17.80;54.49;102177.44;4717434;30;20037;-72
2022/07/15 08:56:35;;;;;;;2.17;0.98;;;;;;;17.83;54.30;102186.03;4717497;30;20029;-73
2022/07/15 08:59:03;;;;;;;3.50;1.02;;;;;;;17.75;53.51;102180.91;4717451;30;20057;-72
2022/07/15 09:01:29;;;;;;;3.13;0.90;;;;;;;17.80;53.37;102180.19;4714218;30;20094;-74
2022/07/15 09:03:55;;;;;;;4.78;1.13;;;;;;;17.89;53.55;102189.75;4717379;30;20058;-74
2022/07/15 09:06:34;;;;;;;7.22;1.30;;;;;;;17.85;54.17;102175.66;4717312;30;20033;-73
2022/07/15 09:09:22;;;;;;;5.50;1.33;;;;;;;17.95;55.78;102177.81;4717587;30;20029;-73
2022/07/15 09:11:54;;;;;;;4.70;1.02;;;;;;;18.04;55.35;102170.03;4717270;30;20083;-72
2022/07/15 09:14:20;;;;;;;6.78;0.90;;;;;;;18.16;55.48;102165.38;4701348;30;20540;-71
2022/07/15 09:16:46;;;;;;;7.90;1.38;;;;;;;18.17;54.20;102169.75;4717349;30;20033;-73
2022/07/15 09:19:11;;;;;;;10.18;1.52;;;;;;;18.17;53.88;102167.00;4717379;30;20233;-73
2022/07/15 09:21:36;;;;;;;7.38;1.00;;;;;;;18.28;54.68;102178.16;4716420;30;20480;-73
2022/07/15 09:24:17;;;;;;;6.53;1.08;;;;;;;18.31;54.06;102173.03;4717247;30;20025;-73
2022/07/15 09:26:42;;;;;;;5.77;1.00;;;;;;;18.19;52.20;102173.09;4717238;30;20036;-75
2022/07/15 09:36:01;;;;;;;5.93;1.20;;;;;;;18.23;52.75;102174.25;4717086;30;20457;-74
2022/07/15 09:38:23;;;;;;;4.72;1.20;;;;;;;18.37;52.49;102180.28;4716182;30;20495;-76
2022/07/15 09:40:48;;;;;;;3.88;0.93;;;;;;;18.36;52.11;102173.13;4694113;30;20156;-78
2022/07/15 09:43:14;;;;;;;6.45;0.95;;;;;;;18.37;52.01;102168.47;4715991;30;20119;-80
2022/07/15 09:45:41;;;;;;;4.55;1.23;;;;;;;18.29;51.20;102171.63;4715654;30;20051;-78
2022/07/15 09:48:13;;;;;;;4.68;1.10;;;;;;;18.35;53.30;102176.13;4716894;30;20041;-78
2022/07/15 09:50:39;;;;;;;4.32;0.90;;;;;;;18.37;53.01;102169.31;4700051;30;20040;-78
2022/07/15 09:53:10;;;;;;;8.90;1.08;;;;;;;18.39;53.07;102160.84;4716984;30;20054;-80
2022/07/15 09:55:36;;;;;;;3.30;0.90;;;;;;;18.57;52.39;102163.38;4716748;30;20500;-79
2022/07/15 09:58:04;;;;;;;5.43;1.13;;;;;;;18.66;52.41;102171.19;4701169;30;20485;-77
2022/07/15 10:00:30;;;;;;;7.82;1.48;;;;;;;18.68;52.20;102163.56;4713871;30;20474;-77
2022/07/15 10:02:55;;;;;;;9.52;1.30;;;;;;;18.73;52.98;102160.91;4716164;30;20079;-79
2022/07/15 10:05:21;;;;;;;7.70;1.35;;;;;;;18.84;52.06;102154.53;4715424;30;20393;-78
2022/07/15 10:07:48;;;;;;;4.30;1.20;;;;;;;18.97;52.02;102156.13;4703143;30;20098;-79
2022/07/15 10:10:13;;;;;;;5.05;1.08;;;;;;;19.07;51.47;102159.03;4695088;30;20158;-77
2022/07/15 10:13:19;;;;;;;3.92;1.15;;;;;;;19.13;51.20;102155.28;4702746;30;20037;-77
2022/07/15 10:15:51;;;;;;;9.05;1.27;;;;;;;19.11;50.79;102151.13;4703290;30;20107;-77
2022/07/15 10:18:36;;;;;;;1.90;0.70;;;;;;;19.15;50.67;102152.28;4702587;30;20065;-77
2022/07/15 10:21:22;;;;;;;8.95;1.33;;;;;;;19.30;50.93;102154.44;4715503;30;20053;-77
2022/07/15 10:24:14;;;;;;;5.95;1.20;;;;;;;19.27;50.81;102144.78;4720442;30;20355;-77
2022/07/15 10:27:14;;;;;;;4.70;0.90;;;;;;;19.29;50.53;102153.59;4719957;30;20062;-77
2022/07/15 10:29:40;;;;;;;7.03;1.08;;;;;;;19.27;49.94;102144.78;4718510;30;20071;-77
2022/07/15 10:32:06;;;;;;;3.35;0.82;;;;;;;19.40;50.15;102148.25;4718530;30;20071;-78
2022/07/15 10:34:33;;;;;;;3.80;1.10;;;;;;;19.49;50.00;102135.75;4718584;30;20064;-77
2022/07/15 10:37:02;;;;;;;4.60;0.80;;;;;;;19.50;49.61;102142.91;4720081;30;20040;-77
2022/07/15 10:39:49;;;;;;;4.78;1.05;;;;;;;19.76;51.06;102141.34;4718645;30;20045;-77
2022/07/15 10:42:16;;;;;;;3.67;0.98;;;;;;;19.74;48.78;102134.44;4703504;30;20083;-77
2022/07/15 10:45:02;;;;;;;3.00;0.75;;;;;;;19.90;48.25;102136.31;4719597;30;20053;-77
2022/07/15 10:47:28;;;;;;;3.03;0.80;;;;;;;20.08;46.26;102140.63;4718956;30;20032;-77
2022/07/15 10:49:53;;;;;;;4.57;0.90;;;;;;;20.18;46.85;102131.66;4719877;30;20120;-77
2022/07/15 10:52:22;;;;;;;5.43;0.60;;;;;;;20.30;45.96;102137.81;4719742;30;20123;-78
2022/07/15 10:54:50;;;;;;;3.45;1.08;;;;;;;20.10;46.00;102123.88;4719717;30;20041;-78
2022/07/15 10:57:17;;;;;;;3.58;0.80;;;;;;;;;;4717571;30;20037;-77
2022/07/15 10:59:55;;;;;;;7.72;1.10;;;;;;;20.16;47.51;102112.69;4698763;30;20054;-77
2022/07/15 11:02:27;;;;;;;4.03;0.75;;;;;;;20.22;46.75;102115.50;4700431;30;20459;-77
2022/07/15 11:05:18;;;;;;;3.90;0.95;;;;;;;20.11;47.98;102114.53;4700627;30;20117;-77
2022/07/15 11:07:44;;;;;;;6.22;1.60;;;;;;;19.99;46.59;102109.22;4700373;30;20120;-77
2022/07/15 11:10:16;;;;;;;5.35;0.98;;;;;;;20.04;46.74;102127.66;4707564;30;20120;-80
2022/07/15 11:12:56;;;;;;;7.80;1.17;;;;;;;20.09;47.03;102116.72;4719015;30;20449;-78
2022/07/15 11:15:24;;;;;;;3.20;0.90;;;;;;;20.11;46.28;102098.03;4717939;30;20102;-78
2022/07/15 11:17:53;;;;;;;4.65;1.10;;;;;;;20.17;46.64;102108.03;4702802;30;20040;-79
2022/07/15 11:20:21;;;;;;;4.22;0.95;;;;;;;20.35;47.44;102115.91;4718121;30;20146;-76
2022/07/15 11:22:53;;;;;;;4.25;1.38;;;;;;;20.42;46.02;102115.69;4719001;30;20453;-77
2022/07/15 11:25:40;;;;;;;3.03;1.10;;;;;;;20.55;47.02;102108.94;4703395;30;20115;-77
2022/07/15 11:28:14;;;;;;;4.45;1.00;;;;;;;20.66;46.21;102098.88;4703159;30;20058;-78
2022/07/15 11:30:48;;;;;;;4.63;1.17;;;;;;;20.81;46.27;102089.91;4716997;30;20033;-77
2022/07/15 11:33:15;;;;;;;4.70;0.80;;;;;;;20.76;44.67;102093.47;4719217;30;20083;-78
2022/07/15 11:35:51;;;;;;;2.72;0.95;;;;;;;20.72;45.81;102103.31;4716831;30;20493;-78
2022/07/15 11:38:17;;;;;;;6.07;0.73;;;;;;;20.53;45.88;102100.94;4715993;30;20071;-78
2022/07/15 11:46:15;;;;;;;3.22;0.75;;;;;;;20.74;46.05;102097.56;4717480;30;20443;-77
2022/07/15 11:48:41;;;;;;;4.05;0.90;;;;;;;20.71;45.44;102079.66;4718183;30;20033;-77
2022/07/15 11:51:08;;;;;;;4.25;1.00;;;;;;;20.76;45.56;102081.59;4702768;30;20132;-76
2022/07/15 11:53:42;;;;;;;6.57;0.95;;;;;;;20.99;46.01;102092.22;4702970;30;20033;-79
2022/07/15 11:56:09;;;;;;;2.95;1.00;;;;;;;20.81;44.05;102076.97;4717318;30;20045;-79
2022/07/15 11:58:44;;;;;;;5.20;0.90;;;;;;;20.93;44.77;102081.47;4718319;30;20029;-78
2022/07/15 12:01:14;;;;;;;4.72;0.80;;;;;;;20.95;43.91;102080.09;4708494;30;20103;-78
2022/07/15 12:03:43;;;;;;;1.92;0.85;;;;;;;21.00;42.96;102082.88;4701094;30;20114;-79
2022/07/15 12:06:14;;;;;;;4.35;0.95;;;;;;;21.16;44.54;102082.97;4715261;30;20041;-78
2022/07/15 12:08:40;;;;;;;5.13;0.90;;;;;;;21.31;43.83;102071.22;4716187;30;20033;-78
2022/07/15 12:11:20;;;;;;;3.25;0.77;;;;;;;21.50;43.75;102068.84;4718187;30;20462;-78
2022/07/15 12:13:52;;;;;;;1.92;0.75;;;;;;;21.64;44.02;102075.53;4716636;30;20029;-77
2022/07/15 12:16:26;;;;;;;4.63;1.00;;;;;;;21.61;43.11;102070.56;4716887;30;20056;-78
2022/07/15 12:18:53;;;;;;;5.70;0.88;;;;;;;21.42;44.29;102073.75;4718143;30;20486;-81
2022/07/15 12:21:19;;;;;;;6.07;1.00;;;;;;;21.21;44.16;102066.47;4702367;30;20036;-79
2022/07/15 12:24:01;;;;;;;5.38;1.10;;;;;;;21.10;44.51;102070.28;4718103;30;20167;-80
2022/07/15 12:26:26;;;;;;;3.17;0.70;;;;;;;21.20;43.52;102065.66;4716836;30;20095;-79
2022/07/15 12:29:00;;;;;;;5.38;0.52;;;;;;;21.49;43.51;102065.25;4717509;30;20029;-79
2022/07/15 12:31:37;;;;;;;6.35;0.82;;;;;;;21.82;43.57;102070.63;4702144;30;20079;-79
2022/07/15 12:34:03;;;;;;;3.50;0.98;;;;;;;21.98;42.81;102068.72;4717146;30;20120;-79
2022/07/15 12:36:33;;;;;;;5.43;0.75;;;;;;;21.81;43.43;102069.78;4715687;30;20140;-78
2022/07/15 12:39:16;;;;;;;6.88;0.80;;;;;;;21.61;42.74;102070.56;4718018;30;20033;-79
2022/07/15 12:41:43;;;;;;;2.42;0.93;;;;;;;21.50;42.85;102083.47;4715960;30;20486;-78
2022/07/15 12:44:10;;;;;;;6.07;0.90;;;;;;;21.31;42.84;102069.28;4717315;30;20044;-79
2022/07/15 12:47:03;;;;;;;3.40;0.80;;;;;;;21.16;43.78;102080.22;4701889;30;20037;-78
2022/07/15 12:49:54;;;;;;;4.13;0.90;;;;;;;21.04;44.40;102081.25;4700778;30;20119;-78
2022/07/15 12:52:37;;;;;;;3.30;0.88;;;;;;;20.92;44.30;102080.63;4716333;30;20041;-78
2022/07/15 12:55:18;;;;;;;6.45;0.90;;;;;;;20.95;44.75;102085.59;4702033;30;20488;-76
2022/07/15 12:57:44;;;;;;;5.78;1.08;;;;;;;20.84;44.83;102073.69;4717469;30;20039;-78
2022/07/15 13:00:15;;;;;;;7.75;1.05;;;;;;;20.88;45.29;102085.03;4700953;30;20460;-78
2022/07/15 13:03:00;;;;;;;9.75;0.95;;;;;;;20.91;45.70;102084.50;4715276;30;20033;-78
2022/07/15 13:05:28;;;;;;;3.88;0.80;;;;;;;20.92;44.89;102086.13;4715935;30;20033;-78
2022/07/15 13:07:54;;;;;;;4.50;0.93;;;;;;;21.11;44.44;102082.97;4716277;30;20051;-77
2022/07/15 13:10:19;;;;;;;4.45;0.90;;;;;;;21.40;45.13;102069.59;4698326;30;20494;-75
2022/07/15 13:12:45;;;;;;;5.95;1.13;;;;;;;21.55;43.45;102075.19;4706651;30;20035;-79
2022/07/15 13:15:10;;;;;;;2.90;0.90;;;;;;;21.69;43.03;102071.94;4717223;30;20041;-78
2022/07/15 13:17:35;;;;;;;6.72;1.00;;;;;;;21.75;43.11;102077.19;4715918;30;20033;-77
2022/07/15 13:20:03;;;;;;;4.40;1.20;;;;;;;21.90;43.11;102067.31;4717394;30;20117;-78
2022/07/15 13:22:30;;;;;;;7.00;1.10;;;;;;;21.90;43.23;102070.09;4700844;30;20377;-76